Terminal Aerodrome Forecast
Issued by NWS

Home | Current Version | Previous Version | Text Only | Print | Product List | Glossary On
Versions: 1 2 3 4 5 6 7 8 9 10 11 12 13
096
FTUS44 KBMX 260520
TAFANB
TAF
KANB 260520Z 2606/2706 00000KT P6SM FEW060
      TEMPO 2609/2612 4SM BR
     FM261600 17005KT P6SM SCT050=

USA.gov is the U.S. government's official web portal to all federal, state and local government web resources and services.